Time;durP1;ratioP1;P1;durP2;ratioP2;P2;SDS_P1;SDS_P2;PMS_P1;PMS_P2;Temp;Humidity;BMP_temperature;BMP_pressure;BME280_temperature;BME280_humidity;BME280_pressure;Samples;Min_cycle;Max_cycle;Signal;HPM_P1;HPM_P2
2023/08/10 00:01:50;;;;;;;3.45;2.13;;;;;;;;;;5042205;28;20093;-83
2023/08/10 00:04:16;;;;;;;2.33;1.90;;;;;;;;;;5036304;28;20018;-84
2023/08/10 00:06:41;;;;;;;4.45;1.83;;;;;;;;;;5042943;28;20077;-83
2023/08/10 00:09:11;;;;;;;2.55;2.00;;;;;;;;;;5031820;28;20018;-82
2023/08/10 00:11:37;;;;;;;2.30;1.90;;;;;;;;;;5021560;28;20033;-82
2023/08/10 00:14:03;;;;;;;2.97;1.90;;;;;;;;;;5028393;28;20038;-83
2023/08/10 00:16:29;;;;;;;4.15;2.30;;;;;;;;;;5027190;28;20492;-82
2023/08/10 00:18:54;;;;;;;2.75;1.83;;;;;;;;;;5033880;28;20026;-82
2023/08/10 00:21:20;;;;;;;3.00;2.30;;;;;;;;;;5032482;28;20048;-82
2023/08/10 00:23:45;;;;;;;2.22;2.03;;;;;;;;;;5027471;28;20033;-81
2023/08/10 00:26:11;;;;;;;3.40;2.20;;;;;;;;;;5009370;28;20428;-83
2023/08/10 00:28:36;;;;;;;3.22;1.95;;;;;;;;;;5023145;28;20030;-83
2023/08/10 00:31:02;;;;;;;2.95;2.08;;;;;;;;;;5022343;28;20028;-83
2023/08/10 00:33:28;;;;;;;2.35;1.98;;;;;;;;;;5023786;28;20021;-81
2023/08/10 00:35:53;;;;;;;2.42;2.10;;;;;;;;;;5031664;28;20029;-84
2023/08/10 00:38:18;;;;;;;5.25;2.55;;;;;;;;;;5036986;28;20483;-83
2023/08/10 00:40:44;;;;;;;2.30;2.10;;;;;;;;;;5032940;28;20026;-85
2023/08/10 00:43:10;;;;;;;4.05;2.17;;;;;;;;;;5041573;28;20021;-84
2023/08/10 00:45:37;;;;;;;4.60;2.30;;;;;;;;;;5036000;28;20021;-82
2023/08/10 00:48:03;;;;;;;10.18;2.35;;;;;;;;;;5038262;28;20029;-84
2023/08/10 00:50:28;;;;;;;4.80;2.15;;;;;;;;;;5030812;28;20030;-81
2023/08/10 00:52:54;;;;;;;2.38;2.15;;;;;;;;;;5031490;28;20033;-84
2023/08/10 00:55:20;;;;;;;3.88;2.55;;;;;;;;;;5034318;28;20148;-83
2023/08/10 00:57:46;;;;;;;2.70;2.40;;;;;;;;;;5029749;28;20493;-83
2023/08/10 01:00:14;;;;;;;4.18;2.28;;;;;;;;;;5028070;28;20073;-83
2023/08/10 01:02:40;;;;;;;2.88;2.38;;;;;;;;;;5031154;28;20238;-82
2023/08/10 01:05:11;;;;;;;3.00;2.35;;;;;;;;;;5038121;28;20237;-83
2023/08/10 01:07:50;;;;;;;3.65;2.22;;;;;;;;;;5022762;28;20022;-82
2023/08/10 01:10:28;;;;;;;2.63;2.15;;;;;;;;;;5028053;28;20702;-82
2023/08/10 01:13:10;;;;;;;2.58;2.30;;;;;;;;;;5024845;28;20040;-82
2023/08/10 01:15:42;;;;;;;2.80;2.20;;;;;;;;;;5025080;28;20103;-82
2023/08/10 01:18:11;;;;;;;6.18;2.80;;;;;;;;;;5029200;28;20109;-83
2023/08/10 01:20:38;;;;;;;2.53;2.13;;;;;;;;;;5030329;28;20042;-83
2023/08/10 01:23:10;;;;;;;6.72;2.20;;;;;;;;;;5032551;28;20104;-83
2023/08/10 01:25:36;;;;;;;3.63;2.20;;;;;;;;;;5033248;28;20094;-84
2023/08/10 01:28:02;;;;;;;2.17;1.98;;;;;;;;;;5032576;28;20021;-82
2023/08/10 01:30:27;;;;;;;3.45;2.00;;;;;;;;;;5035779;28;20029;-84
2023/08/10 01:32:53;;;;;;;2.17;1.95;;;;;;;;;;5016885;28;20029;-83
2023/08/10 01:35:18;;;;;;;3.50;2.55;;;;;;;;;;5030104;28;20089;-83
2023/08/10 01:37:44;;;;;;;2.03;1.85;;;;;;;;;;5038010;28;20025;-83
2023/08/10 01:40:12;;;;;;;2.50;2.28;;;;;;;;;;5036004;28;20098;-83
2023/08/10 01:42:38;;;;;;;3.00;2.28;;;;;;;;;;5033140;28;20039;-83
2023/08/10 01:45:04;;;;;;;2.35;2.10;;;;;;;;;;5034851;28;20084;-82
2023/08/10 01:48:06;;;;;;;3.40;2.58;;;;;;;;;;5030719;28;20088;-83
2023/08/10 01:50:38;;;;;;;2.90;2.00;;;;;;;;;;5036405;28;20025;-83
2023/08/10 01:53:11;;;;;;;;;;;;;;;;;;5036289;28;20021;-82
2023/08/10 01:55:37;;;;;;;2.95;2.10;;;;;;;;;;5034331;28;19913;-82
2023/08/10 01:58:03;;;;;;;3.85;2.30;;;;;;;;;;5032537;28;20033;-83
2023/08/10 02:00:30;;;;;;;2.30;2.05;;;;;;;;;;5030539;28;20025;-83
2023/08/10 02:02:55;;;;;;;2.47;2.25;;;;;;;;;;5028620;28;20156;-82
2023/08/10 02:05:21;;;;;;;2.42;2.10;;;;;;;;;;5015682;28;20057;-83
2023/08/10 02:07:49;;;;;;;2.80;2.08;;;;;;;;;;5028734;28;20026;-82
2023/08/10 02:10:15;;;;;;;3.15;2.30;;;;;;;;;;5037256;28;20025;-82
2023/08/10 02:12:40;;;;;;;2.00;1.83;;;;;;;;;;5031469;28;20447;-82
2023/08/10 02:15:06;;;;;;;2.05;1.90;;;;;;;;;;5032476;28;20108;-83
2023/08/10 02:17:35;;;;;;;2.80;2.20;;;;;;;;;;5029091;28;20021;-83
2023/08/10 02:20:11;;;;;;;7.00;2.10;;;;;;;;;;5029953;28;20072;-83
2023/08/10 02:22:42;;;;;;;3.28;2.20;;;;;;;;;;5041573;28;20088;-82
2023/08/10 02:25:09;;;;;;;2.50;1.95;;;;;;;;;;5037293;28;20289;-83
2023/08/10 02:27:35;;;;;;;5.47;2.00;;;;;;;;;;5039612;28;20022;-82
2023/08/10 02:30:00;;;;;;;3.08;2.25;;;;;;;;;;5034390;28;20132;-82
2023/08/10 02:32:25;;;;;;;3.85;2.17;;;;;;;;;;5032749;28;20108;-82
2023/08/10 02:34:51;;;;;;;2.45;2.25;;;;;;;;;;5035810;28;20025;-83
2023/08/10 02:37:16;;;;;;;3.97;1.95;;;;;;;;;;5029601;28;20029;-83
2023/08/10 02:39:41;;;;;;;2.97;2.10;;;;;;;;;;5037140;28;20037;-82
2023/08/10 02:42:06;;;;;;;3.15;2.22;;;;;;;;;;5024303;28;20113;-82
2023/08/10 02:44:32;;;;;;;3.35;2.47;;;;;;;;;;5031418;28;20348;-83
2023/08/10 02:46:57;;;;;;;5.55;2.10;;;;;;;;;;5036604;28;20509;-82
2023/08/10 02:49:22;;;;;;;2.97;2.10;;;;;;;;;;5042524;28;20037;-83
2023/08/10 02:51:48;;;;;;;2.90;2.50;;;;;;;;;;5041053;28;20033;-83
2023/08/10 02:54:13;;;;;;;5.10;2.47;;;;;;;;;;5038274;28;20596;-83
2023/08/10 02:56:38;;;;;;;3.50;2.40;;;;;;;;;;5037485;28;20028;-82
2023/08/10 02:59:04;;;;;;;2.28;2.03;;;;;;;;;;5034982;28;20022;-83
2023/08/10 03:01:29;;;;;;;4.32;2.53;;;;;;;;;;5043094;28;20018;-82
2023/08/10 03:03:55;;;;;;;4.95;2.50;;;;;;;;;;5029602;28;20029;-82
2023/08/10 03:06:20;;;;;;;2.55;2.20;;;;;;;;;;5032877;28;20036;-83
2023/08/10 03:08:45;;;;;;;6.78;3.00;;;;;;;;;;5039763;28;20488;-82
2023/08/10 03:11:11;;;;;;;2.67;2.42;;;;;;;;;;5041437;28;20029;-82
2023/08/10 03:13:37;;;;;;;5.25;2.47;;;;;;;;;;5040745;28;20057;-83
2023/08/10 03:16:02;;;;;;;2.78;2.45;;;;;;;;;;5042517;28;20033;-82
2023/08/10 03:18:27;;;;;;;3.47;2.25;;;;;;;;;;5038599;28;20013;-82
2023/08/10 03:20:53;;;;;;;3.17;2.33;;;;;;;;;;5037567;28;20036;-82
2023/08/10 03:23:18;;;;;;;13.73;2.30;;;;;;;;;;5041729;28;20068;-83
2023/08/10 03:25:43;;;;;;;2.75;2.40;;;;;;;;;;5040436;28;20071;-82
2023/08/10 03:28:09;;;;;;;4.32;2.42;;;;;;;;;;5039415;28;20021;-83
2023/08/10 03:30:36;;;;;;;2.80;2.20;;;;;;;;;;5041606;28;20108;-82
2023/08/10 03:33:01;;;;;;;2.83;2.45;;;;;;;;;;5037888;28;20410;-84
2023/08/10 03:35:27;;;;;;;2.67;2.20;;;;;;;;;;5027429;28;20050;-82
2023/08/10 03:37:52;;;;;;;5.20;2.78;;;;;;;;;;5027136;28;20033;-82
2023/08/10 03:40:17;;;;;;;2.90;2.30;;;;;;;;;;5024220;28;20120;-82
2023/08/10 03:42:43;;;;;;;9.70;3.08;;;;;;;;;;5044572;28;20061;-82
2023/08/10 03:45:08;;;;;;;3.85;2.90;;;;;;;;;;5033610;28;20056;-82
2023/08/10 03:47:34;;;;;;;4.68;2.50;;;;;;;;;;5015780;28;20014;-82
2023/08/10 03:49:59;;;;;;;2.67;2.40;;;;;;;;;;5036582;28;20021;-83
2023/08/10 03:52:26;;;;;;;5.63;3.63;;;;;;;;;;5027755;28;20021;-83
2023/08/10 03:54:51;;;;;;;4.35;3.00;;;;;;;;;;5030818;28;20029;-82
2023/08/10 03:57:16;;;;;;;6.05;3.20;;;;;;;;;;5035805;28;20052;-82
2023/08/10 03:59:42;;;;;;;4.57;3.30;;;;;;;;;;5018493;28;20112;-83
2023/08/10 04:02:08;;;;;;;4.10;3.40;;;;;;;;;;5036012;28;20024;-83
2023/08/10 04:04:33;;;;;;;3.97;2.95;;;;;;;;;;5027421;28;20029;-82
2023/08/10 04:06:59;;;;;;;5.70;3.28;;;;;;;;;;5029929;28;20049;-83
2023/08/10 04:09:24;;;;;;;4.10;3.15;;;;;;;;;;5013557;28;20045;-82
2023/08/10 04:11:50;;;;;;;6.15;3.25;;;;;;;;;;5041544;28;20035;-84
2023/08/10 04:14:15;;;;;;;6.28;3.85;;;;;;;;;;5042690;28;20026;-83
2023/08/10 04:16:40;;;;;;;5.07;3.53;;;;;;;;;;5043794;28;20032;-83
2023/08/10 04:19:06;;;;;;;5.95;3.75;;;;;;;;;;5036026;28;20067;-85
2023/08/10 04:21:31;;;;;;;5.07;3.30;;;;;;;;;;5041756;28;20025;-84
2023/08/10 04:23:56;;;;;;;5.00;3.83;;;;;;;;;;5029158;28;20040;-84
2023/08/10 04:26:22;;;;;;;7.60;3.67;;;;;;;;;;5029722;28;20029;-83
2023/08/10 04:28:47;;;;;;;5.00;3.50;;;;;;;;;;5035528;28;20033;-83
2023/08/10 04:31:13;;;;;;;5.55;3.40;;;;;;;;;;5022441;28;20057;-83
2023/08/10 04:33:40;;;;;;;8.63;3.58;;;;;;;;;;5013019;28;20411;-83
2023/08/10 04:36:07;;;;;;;6.32;3.67;;;;;;;;;;5041386;28;20026;-83
2023/08/10 04:38:33;;;;;;;4.72;3.22;;;;;;;;;;5035616;28;20017;-82
2023/08/10 04:40:59;;;;;;;3.70;3.05;;;;;;;;;;5034680;28;20116;-82
2023/08/10 04:43:24;;;;;;;6.43;3.20;;;;;;;;;;5016375;28;20060;-83
2023/08/10 04:45:49;;;;;;;3.95;3.33;;;;;;;;;;5035309;28;20513;-84
2023/08/10 04:48:15;;;;;;;6.05;3.35;;;;;;;;;;5037126;28;20036;-83
2023/08/10 04:50:40;;;;;;;4.03;3.08;;;;;;;;;;5037637;28;20025;-83
2023/08/10 04:53:05;;;;;;;3.55;2.90;;;;;;;;;;5036009;28;20029;-83
2023/08/10 04:55:31;;;;;;;8.68;3.65;;;;;;;;;;5019377;28;20044;-83
2023/08/10 04:57:56;;;;;;;6.18;3.25;;;;;;;;;;5027293;28;20026;-83
2023/08/10 05:00:23;;;;;;;4.35;3.08;;;;;;;;;;5036995;28;20033;-82
2023/08/10 05:02:49;;;;;;;4.38;3.28;;;;;;;;;;5028092;28;20093;-84
2023/08/10 05:05:14;;;;;;;4.63;3.42;;;;;;;;;;5031526;28;20052;-83
2023/08/10 05:07:40;;;;;;;6.65;3.22;;;;;;;;;;5040195;28;20020;-83
2023/08/10 05:10:06;;;;;;;4.15;3.75;;;;;;;;;;5036009;28;20029;-83
2023/08/10 05:12:36;;;;;;;5.65;4.18;;;;;;;;;;5032591;28;20033;-84
2023/08/10 05:15:03;;;;;;;5.00;3.53;;;;;;;;;;5036376;28;20029;-83
2023/08/10 05:17:28;;;;;;;11.07;3.67;;;;;;;;;;5036185;28;20057;-83
2023/08/10 05:19:54;;;;;;;7.32;4.10;;;;;;;;;;5035556;28;20037;-83
2023/08/10 05:22:19;;;;;;;5.35;3.97;;;;;;;;;;5016801;28;20022;-84
2023/08/10 05:24:44;;;;;;;8.80;4.07;;;;;;;;;;5034667;28;20557;-83
2023/08/10 05:27:10;;;;;;;11.85;4.10;;;;;;;;;;5018728;28;20057;-83
2023/08/10 05:29:35;;;;;;;8.63;4.32;;;;;;;;;;5038987;28;20022;-83
2023/08/10 05:32:00;;;;;;;5.45;4.05;;;;;;;;;;5031900;28;20025;-83
2023/08/10 05:34:26;;;;;;;11.43;4.63;;;;;;;;;;5030792;28;20061;-84
2023/08/10 05:36:51;;;;;;;6.93;4.18;;;;;;;;;;5026912;28;20424;-83
2023/08/10 05:39:17;;;;;;;7.63;4.80;;;;;;;;;;5033599;28;20569;-82
2023/08/10 05:41:43;;;;;;;8.02;3.97;;;;;;;;;;5032109;28;20026;-83
2023/08/10 05:44:09;;;;;;;9.10;4.53;;;;;;;;;;5030751;28;20399;-84
2023/08/10 05:46:34;;;;;;;8.35;4.88;;;;;;;;;;5027164;28;20032;-83
2023/08/10 05:48:59;;;;;;;6.60;4.72;;;;;;;;;;5035382;28;20026;-83
2023/08/10 05:51:25;;;;;;;7.07;4.75;;;;;;;;;;5031174;28;20411;-83
2023/08/10 05:53:50;;;;;;;5.95;4.72;;;;;;;;;;5026897;28;20470;-83
2023/08/10 05:56:15;;;;;;;7.13;5.13;;;;;;;;;;5031466;28;20444;-83
2023/08/10 05:58:41;;;;;;;5.82;4.65;;;;;;;;;;5036288;28;20368;-84
2023/08/10 06:01:06;;;;;;;8.43;5.20;;;;;;;;;;5039637;28;20098;-84
2023/08/10 06:03:32;;;;;;;7.68;4.03;;;;;;;;;;5034988;28;20056;-83
2023/08/10 06:05:59;;;;;;;6.63;4.43;;;;;;;;;;5031302;28;20125;-83
2023/08/10 06:08:24;;;;;;;4.85;3.78;;;;;;;;;;5014645;28;20014;-83
2023/08/10 06:10:51;;;;;;;6.40;4.55;;;;;;;;;;5022431;28;20060;-83
2023/08/10 06:13:18;;;;;;;7.07;4.43;;;;;;;;;;5033030;28;20191;-83
2023/08/10 06:15:44;;;;;;;5.57;3.95;;;;;;;;;;5038904;28;20029;-83
2023/08/10 06:18:09;;;;;;;6.88;4.30;;;;;;;;;;5039145;28;20029;-83
2023/08/10 06:20:35;;;;;;;5.97;4.82;;;;;;;;;;5039325;28;20029;-84
2023/08/10 06:23:01;;;;;;;7.00;4.45;;;;;;;;;;5031232;28;20044;-83
2023/08/10 06:25:27;;;;;;;7.00;4.70;;;;;;;;;;5038189;28;20434;-82
2023/08/10 06:27:52;;;;;;;5.57;4.28;;;;;;;;;;5027464;28;20032;-84
2023/08/10 06:30:18;;;;;;;7.88;4.40;;;;;;;;;;5041519;28;20026;-83
2023/08/10 06:32:44;;;;;;;10.30;4.65;;;;;;;;;;5030026;28;20017;-83
2023/08/10 06:35:09;;;;;;;8.43;4.32;;;;;;;;;;5035878;28;20033;-82
2023/08/10 06:37:35;;;;;;;8.45;4.60;;;;;;;;;;5040434;28;20029;-83
2023/08/10 06:40:01;;;;;;;5.53;4.28;;;;;;;;;;5037222;28;20085;-84
2023/08/10 06:42:26;;;;;;;5.10;4.28;;;;;;;;;;5036738;28;20103;-83
2023/08/10 06:44:51;;;;;;;9.80;4.95;;;;;;;;;;5032069;28;20045;-84
2023/08/10 06:47:17;;;;;;;7.03;4.55;;;;;;;;;;5039681;28;20040;-83
2023/08/10 06:49:42;;;;;;;5.80;4.38;;;;;;;;;;5039833;28;20109;-83
2023/08/10 06:52:08;;;;;;;7.40;4.90;;;;;;;;;;5036492;28;20494;-83
2023/08/10 06:54:34;;;;;;;5.75;4.70;;;;;;;;;;5031995;28;20087;-83
2023/08/10 06:57:00;;;;;;;8.82;4.60;;;;;;;;;;5037503;28;20455;-83
2023/08/10 06:59:26;;;;;;;7.63;4.40;;;;;;;;;;5035562;28;20013;-83
2023/08/10 07:01:51;;;;;;;6.60;4.28;;;;;;;;;;5021527;28;20041;-84
2023/08/10 07:04:17;;;;;;;7.67;4.23;;;;;;;;;;4994462;28;1102756;-83
2023/08/10 07:06:43;;;;;;;6.32;4.38;;;;;;;;;;5045137;28;20017;-84
2023/08/10 07:09:09;;;;;;;7.40;4.18;;;;;;;;;;5039290;28;20025;-84
2023/08/10 07:11:35;;;;;;;7.03;4.25;;;;;;;;;;5041664;28;20026;-84
2023/08/10 07:14:01;;;;;;;6.97;4.32;;;;;;;;;;5042589;28;20127;-83
2023/08/10 07:16:26;;;;;;;4.75;3.90;;;;;;;;;;5044338;28;20028;-83
2023/08/10 07:18:51;;;;;;;6.28;4.13;;;;;;;;;;5022529;28;20026;-83
2023/08/10 07:21:17;;;;;;;8.27;4.25;;;;;;;;;;5038381;28;20048;-83
2023/08/10 07:23:42;;;;;;;5.70;4.18;;;;;;;;;;5036182;28;20029;-83
2023/08/10 07:26:08;;;;;;;7.03;4.03;;;;;;;;;;5033473;28;20026;-83
2023/08/10 07:28:33;;;;;;;7.72;3.47;;;;;;;;;;5039438;28;20598;-82
2023/08/10 07:31:02;;;;;;;7.72;4.20;;;;;;;;;;5025282;28;20136;-82
2023/08/10 07:33:28;;;;;;;10.65;4.00;;;;;;;;;;5034027;28;20053;-83
2023/08/10 07:35:54;;;;;;;5.38;3.83;;;;;;;;;;5021209;28;20041;-83
2023/08/10 07:38:19;;;;;;;7.18;3.83;;;;;;;;;;5030026;28;20049;-83
2023/08/10 07:40:45;;;;;;;7.32;3.78;;;;;;;;;;5032644;28;20017;-82
2023/08/10 07:43:10;;;;;;;7.40;3.60;;;;;;;;;;5029357;28;20025;-82
2023/08/10 07:45:36;;;;;;;6.68;3.90;;;;;;;;;;5035903;28;20025;-82
2023/08/10 07:48:01;;;;;;;6.30;3.42;;;;;;;;;;5035774;28;20101;-82
2023/08/10 07:50:28;;;;;;;6.72;4.10;;;;;;;;;;5028334;28;20462;-84
2023/08/10 07:52:53;;;;;;;4.10;3.38;;;;;;;;;;5023876;28;20041;-83
2023/08/10 07:55:19;;;;;;;4.18;3.20;;;;;;;;;;5033846;28;20021;-83
2023/08/10 07:57:45;;;;;;;5.50;3.05;;;;;;;;;;5040042;28;20534;-83
2023/08/10 08:00:10;;;;;;;5.72;3.92;;;;;;;;;;5040679;28;20017;-83
2023/08/10 08:02:37;;;;;;;4.78;3.17;;;;;;;;;;5034681;28;20026;-83
2023/08/10 08:05:03;;;;;;;4.55;3.40;;;;;;;;;;5014600;28;20472;-83
2023/08/10 08:07:30;;;;;;;6.78;3.22;;;;;;;;;;5032526;28;20045;-83
2023/08/10 08:09:57;;;;;;;7.28;3.22;;;;;;;;;;5036715;28;20029;-83
2023/08/10 08:12:23;;;;;;;5.65;3.33;;;;;;;;;;5028215;28;20025;-83
2023/08/10 08:14:48;;;;;;;4.88;3.50;;;;;;;;;;5036438;28;20029;-83
2023/08/10 08:17:14;;;;;;;5.03;3.00;;;;;;;;;;5025022;28;20026;-84
2023/08/10 08:19:40;;;;;;;4.35;3.00;;;;;;;;;;5032281;28;20021;-84
2023/08/10 08:22:05;;;;;;;6.43;3.00;;;;;;;;;;5031642;28;20598;-84
2023/08/10 08:24:31;;;;;;;5.22;2.70;;;;;;;;;;5029083;28;20040;-84
2023/08/10 08:26:56;;;;;;;5.03;2.92;;;;;;;;;;5022904;28;20109;-84
2023/08/10 08:29:22;;;;;;;4.40;2.60;;;;;;;;;;5015604;28;20018;-84
2023/08/10 08:31:48;;;;;;;4.70;2.78;;;;;;;;;;5026901;28;20033;-83
2023/08/10 08:34:14;;;;;;;4.05;2.70;;;;;;;;;;5032043;28;20022;-84
2023/08/10 08:36:39;;;;;;;4.97;2.97;;;;;;;;;;5036504;28;20017;-84
2023/08/10 08:39:05;;;;;;;4.13;2.60;;;;;;;;;;5028750;28;20537;-84
2023/08/10 08:41:36;;;;;;;4.88;2.65;;;;;;;;;;5034367;28;20084;-85
2023/08/10 08:44:03;;;;;;;4.72;2.47;;;;;;;;;;5036686;28;20026;-83
2023/08/10 08:46:31;;;;;;;5.65;2.65;;;;;;;;;;5037638;28;20088;-84
2023/08/10 08:48:57;;;;;;;7.53;2.47;;;;;;;;;;5034709;28;20480;-84
2023/08/10 08:51:23;;;;;;;4.30;2.90;;;;;;;;;;5037634;28;20121;-84
2023/08/10 08:53:49;;;;;;;4.80;2.58;;;;;;;;;;5015984;28;20169;-84
2023/08/10 08:56:14;;;;;;;2.88;2.17;;;;;;;;;;5016504;28;20030;-84
2023/08/10 08:58:40;;;;;;;3.67;2.05;;;;;;;;;;5034343;28;20028;-84
2023/08/10 09:01:07;;;;;;;5.50;2.40;;;;;;;;;;5031428;28;20064;-84
2023/08/10 09:03:33;;;;;;;4.25;2.47;;;;;;;;;;5038210;28;20093;-84
2023/08/10 09:06:00;;;;;;;4.97;3.00;;;;;;;;;;5038252;28;20041;-84
2023/08/10 09:08:26;;;;;;;2.38;2.17;;;;;;;;;;5046281;28;20013;-84
2023/08/10 09:10:52;;;;;;;3.35;2.13;;;;;;;;;;5042941;28;20086;-83
2023/08/10 09:13:22;;;;;;;3.63;2.42;;;;;;;;;;5047551;28;20044;-83
2023/08/10 09:16:03;;;;;;;2.75;2.03;;;;;;;;;;5039741;28;20029;-84
2023/08/10 09:18:34;;;;;;;2.00;1.83;;;;;;;;;;5031990;28;20497;-83
2023/08/10 09:21:16;;;;;;;2.38;1.80;;;;;;;;;;5030844;28;20109;-83
2023/08/10 09:23:45;;;;;;;3.53;2.53;;;;;;;;;;5019824;28;20026;-84
2023/08/10 09:26:12;;;;;;;3.35;2.10;;;;;;;;;;5025597;28;20403;-83
2023/08/10 09:28:38;;;;;;;3.55;2.53;;;;;;;;;;5036261;28;20164;-83
2023/08/10 09:31:05;;;;;;;2.40;1.80;;;;;;;;;;5033187;28;20049;-84
2023/08/10 09:33:35;;;;;;;3.38;2.30;;;;;;;;;;5032208;28;20029;-83
2023/08/10 09:36:08;;;;;;;5.05;2.47;;;;;;;;;;5032662;28;20063;-83
2023/08/10 09:38:34;;;;;;;4.28;2.38;;;;;;;;;;5018124;28;20371;-83
2023/08/10 09:41:21;;;;;;;4.03;2.10;;;;;;;;;;5035869;28;20022;-84
2023/08/10 09:43:46;;;;;;;2.20;2.00;;;;;;;;;;5025567;28;20028;-83
2023/08/10 09:46:14;;;;;;;2.75;2.15;;;;;;;;;;5015524;28;20034;-84
2023/08/10 09:48:41;;;;;;;4.35;2.17;;;;;;;;;;5034668;28;20068;-83
2023/08/10 09:51:08;;;;;;;4.88;2.15;;;;;;;;;;5034681;28;20095;-84
2023/08/10 09:53:36;;;;;;;2.88;2.10;;;;;;;;;;5033600;28;20438;-83
2023/08/10 09:56:02;;;;;;;2.13;1.65;;;;;;;;;;5034024;28;20025;-83
2023/08/10 09:58:28;;;;;;;2.42;1.92;;;;;;;;;;5036350;28;20053;-83
2023/08/10 10:00:53;;;;;;;3.22;1.85;;;;;;;;;;5036205;28;20101;-83
2023/08/10 10:03:20;;;;;;;3.50;1.80;;;;;;;;;;5027693;28;20038;-83
2023/08/10 10:05:47;;;;;;;3.05;1.73;;;;;;;;;;5033401;28;20073;-83
2023/08/10 10:08:13;;;;;;;3.05;1.83;;;;;;;;;;5031490;28;20139;-84
2023/08/10 10:10:42;;;;;;;2.42;1.80;;;;;;;;;;5025660;28;20057;-83
2023/08/10 10:13:14;;;;;;;4.35;2.05;;;;;;;;;;5030612;28;20025;-82
2023/08/10 10:15:44;;;;;;;3.22;2.17;;;;;;;;;;5033892;28;20483;-83
2023/08/10 10:18:11;;;;;;;5.00;2.78;;;;;;;;;;5032022;28;20033;-83
2023/08/10 10:20:39;;;;;;;2.63;1.80;;;;;;;;;;5033697;28;20018;-83
2023/08/10 10:23:13;;;;;;;3.03;1.88;;;;;;;;;;5026231;28;20022;-83
2023/08/10 10:25:39;;;;;;;6.20;2.40;;;;;;;;;;5032428;28;20029;-84
2023/08/10 10:28:13;;;;;;;4.55;1.80;;;;;;;;;;5029095;28;20387;-83
2023/08/10 10:30:53;;;;;;;3.20;2.10;;;;;;;;;;5028597;28;20502;-84
2023/08/10 10:33:19;;;;;;;2.67;2.00;;;;;;;;;;5032110;28;20479;-84
2023/08/10 10:36:13;;;;;;;2.30;1.88;;;;;;;;;;5028197;28;20029;-84
2023/08/10 10:38:46;;;;;;;3.60;2.08;;;;;;;;;;5015947;28;20025;-83
2023/08/10 10:41:16;;;;;;;2.88;2.28;;;;;;;;;;5029389;28;20075;-84
2023/08/10 10:43:44;;;;;;;3.28;2.15;;;;;;;;;;5030334;28;20025;-84
2023/08/10 10:46:35;;;;;;;4.55;2.13;;;;;;;;;;5015167;28;20642;-84
2023/08/10 10:49:04;;;;;;;2.92;2.05;;;;;;;;;;5040785;28;20017;-84
2023/08/10 10:51:29;;;;;;;3.30;2.33;;;;;;;;;;5040501;28;20029;-84
2023/08/10 10:53:56;;;;;;;2.50;2.30;;;;;;;;;;5038831;28;20021;-83
2023/08/10 10:56:21;;;;;;;3.15;2.47;;;;;;;;;;5037519;28;20026;-84
2023/08/10 10:58:47;;;;;;;3.10;2.00;;;;;;;;;;5037998;28;20100;-85
2023/08/10 11:01:19;;;;;;;2.70;1.90;;;;;;;;;;5019121;28;20084;-84
2023/08/10 11:03:50;;;;;;;1.92;1.77;;;;;;;;;;5030199;28;20025;-84
2023/08/10 11:06:18;;;;;;;2.50;1.77;;;;;;;;;;5033493;28;20039;-84
2023/08/10 11:08:48;;;;;;;2.63;1.88;;;;;;;;;;5041694;28;20392;-84
2023/08/10 11:11:13;;;;;;;3.10;2.20;;;;;;;;;;5039048;28;20025;-84
2023/08/10 11:13:38;;;;;;;4.38;2.70;;;;;;;;;;5036337;28;20104;-83
2023/08/10 11:16:04;;;;;;;4.00;2.60;;;;;;;;;;5034628;28;20029;-84
2023/08/10 11:18:31;;;;;;;6.68;2.90;;;;;;;;;;5040183;28;20027;-84
2023/08/10 11:20:56;;;;;;;3.88;2.72;;;;;;;;;;5038661;28;20035;-82
2023/08/10 11:23:24;;;;;;;4.90;3.03;;;;;;;;;;5038262;28;20049;-83
2023/08/10 11:25:51;;;;;;;4.05;3.30;;;;;;;;;;5034203;28;20163;-84
2023/08/10 11:28:19;;;;;;;10.43;3.42;;;;;;;;;;5041021;28;20052;-84
2023/08/10 11:30:45;;;;;;;6.95;3.17;;;;;;;;;;5020397;28;20048;-84
2023/08/10 11:33:10;;;;;;;4.13;2.80;;;;;;;;;;5028614;28;20032;-83
2023/08/10 11:35:36;;;;;;;6.93;2.80;;;;;;;;;;5015829;28;20416;-83
2023/08/10 11:38:01;;;;;;;3.50;2.75;;;;;;;;;;5031855;28;20076;-84
2023/08/10 11:40:27;;;;;;;4.07;2.35;;;;;;;;;;5033059;28;20033;-83
2023/08/10 11:43:04;;;;;;;4.47;2.45;;;;;;;;;;5035021;28;20034;-84
2023/08/10 11:45:30;;;;;;;4.85;3.22;;;;;;;;;;5034143;28;20026;-85
2023/08/10 11:47:57;;;;;;;3.83;2.53;;;;;;;;;;5034093;28;20052;-83
2023/08/10 11:50:25;;;;;;;3.45;2.25;;;;;;;;;;5033282;28;20051;-83
2023/08/10 11:52:50;;;;;;;3.92;2.25;;;;;;;;;;5026447;28;20030;-83
2023/08/10 11:55:18;;;;;;;3.28;2.30;;;;;;;;;;5030888;28;20026;-83
2023/08/10 11:57:46;;;;;;;6.68;2.40;;;;;;;;;;5022637;28;20025;-83
2023/08/10 12:00:33;;;;;;;3.42;2.17;;;;;;;;;;5036404;28;20072;-83
2023/08/10 12:03:07;;;;;;;3.47;1.95;;;;;;;;;;5031957;28;20064;-84
2023/08/10 12:05:44;;;;;;;3.53;2.58;;;;;;;;;;5020597;28;20032;-83
2023/08/10 12:08:15;;;;;;;1.73;1.58;;;;;;;;;;5037574;28;20079;-83
2023/08/10 12:10:42;;;;;;;;;;;;;;;;;;5037547;28;20035;-82
2023/08/10 12:13:10;;;;;;;2.20;1.90;;;;;;;;;;5033977;28;19920;-84
2023/08/10 12:15:37;;;;;;;3.72;2.17;;;;;;;;;;5035257;28;20053;-85
2023/08/10 12:18:03;;;;;;;3.72;1.90;;;;;;;;;;5039420;28;20479;-84
2023/08/10 12:20:30;;;;;;;3.25;2.10;;;;;;;;;;5039766;28;20041;-84
2023/08/10 12:22:59;;;;;;;2.58;2.00;;;;;;;;;;5022393;28;20021;-85
2023/08/10 12:25:24;;;;;;;2.20;1.65;;;;;;;;;;5046397;28;20076;-84
2023/08/10 12:27:50;;;;;;;4.22;2.40;;;;;;;;;;5035367;28;20044;-85
2023/08/10 12:30:16;;;;;;;2.85;1.90;;;;;;;;;;5043724;28;20022;-84
2023/08/10 12:32:41;;;;;;;3.85;2.30;;;;;;;;;;5034088;28;20021;-84
2023/08/10 12:35:07;;;;;;;4.50;1.67;;;;;;;;;;5041227;28;20120;-84
2023/08/10 12:37:32;;;;;;;2.80;2.50;;;;;;;;;;5036933;28;20045;-84
2023/08/10 12:39:57;;;;;;;4.32;2.28;;;;;;;;;;5037568;28;20032;-84
2023/08/10 12:42:29;;;;;;;3.78;2.45;;;;;;;;;;5043854;28;20033;-84
2023/08/10 12:44:54;;;;;;;;;;;;;;;;;;5047386;28;20029;-84
2023/08/10 12:47:19;;;;;;;3.97;2.50;;;;;;;;;;5038213;28;19913;-84
2023/08/10 12:49:45;;;;;;;3.28;2.10;;;;;;;;;;5016176;28;20358;-84
2023/08/10 12:52:10;;;;;;;2.50;1.90;;;;;;;;;;5031518;28;20025;-84
2023/08/10 12:54:36;;;;;;;2.47;2.28;;;;;;;;;;5037303;28;20052;-85
2023/08/10 12:57:01;;;;;;;2.45;2.08;;;;;;;;;;5026695;28;20052;-84
2023/08/10 12:59:27;;;;;;;2.17;1.90;;;;;;;;;;5031750;28;20060;-84
2023/08/10 13:01:52;;;;;;;2.95;2.33;;;;;;;;;;5033133;28;20063;-84
2023/08/10 13:04:18;;;;;;;4.82;2.22;;;;;;;;;;5034924;28;20533;-84
2023/08/10 13:06:43;;;;;;;2.13;1.90;;;;;;;;;;5029217;28;20100;-84
2023/08/10 13:09:09;;;;;;;4.80;2.22;;;;;;;;;;5037697;28;20017;-85
2023/08/10 13:11:36;;;;;;;3.42;2.33;;;;;;;;;;5037401;28;20026;-84
2023/08/10 13:14:02;;;;;;;3.90;2.25;;;;;;;;;;5035112;28;20025;-83
2023/08/10 13:16:27;;;;;;;2.75;1.90;;;;;;;;;;5038574;28;20029;-84
2023/08/10 13:18:52;;;;;;;3.85;2.42;;;;;;;;;;5035758;28;20479;-84
2023/08/10 13:21:19;;;;;;;2.85;2.10;;;;;;;;;;5027398;28;20037;-84
2023/08/10 13:23:44;;;;;;;3.33;2.38;;;;;;;;;;5031154;28;20112;-84
2023/08/10 13:26:09;;;;;;;2.85;2.30;;;;;;;;;;5031594;28;20408;-84
2023/08/10 13:28:35;;;;;;;2.70;2.03;;;;;;;;;;5037174;28;20029;-85
2023/08/10 13:31:00;;;;;;;4.20;2.30;;;;;;;;;;5028924;28;20033;-84
2023/08/10 13:33:28;;;;;;;3.90;2.00;;;;;;;;;;5031494;28;20029;-84
2023/08/10 13:35:53;;;;;;;2.00;1.80;;;;;;;;;;5017482;28;20036;-84
2023/08/10 13:38:19;;;;;;;3.85;2.13;;;;;;;;;;5033844;28;20025;-84
2023/08/10 13:40:44;;;;;;;4.40;2.22;;;;;;;;;;5033437;28;20494;-84
2023/08/10 13:43:10;;;;;;;3.80;1.73;;;;;;;;;;5032946;28;20025;-84
2023/08/10 13:45:35;;;;;;;4.20;2.10;;;;;;;;;;5032389;28;20033;-83
2023/08/10 13:48:00;;;;;;;3.13;1.98;;;;;;;;;;5026696;28;20033;-83
2023/08/10 13:50:26;;;;;;;4.45;2.13;;;;;;;;;;5033465;28;20434;-83
2023/08/10 13:52:51;;;;;;;3.97;2.08;;;;;;;;;;5030704;28;20164;-83
2023/08/10 13:55:16;;;;;;;2.90;1.98;;;;;;;;;;5019975;28;20033;-83
2023/08/10 13:57:42;;;;;;;2.28;1.80;;;;;;;;;;5030272;28;20032;-82
2023/08/10 14:00:07;;;;;;;2.60;2.03;;;;;;;;;;5032803;28;20032;-83
2023/08/10 14:02:33;;;;;;;3.28;2.33;;;;;;;;;;5023487;28;20029;-83
2023/08/10 14:04:59;;;;;;;2.10;1.90;;;;;;;;;;5037463;28;20578;-84
2023/08/10 14:07:25;;;;;;;2.00;1.80;;;;;;;;;;5034349;28;20025;-84
2023/08/10 14:09:50;;;;;;;2.67;1.90;;;;;;;;;;5033700;28;20033;-84
2023/08/10 14:12:15;;;;;;;2.38;1.70;;;;;;;;;;5030870;28;20033;-84
2023/08/10 14:14:41;;;;;;;6.13;2.03;;;;;;;;;;5035402;28;20055;-84
2023/08/10 14:17:06;;;;;;;2.10;1.60;;;;;;;;;;5025393;28;20060;-84
2023/08/10 14:19:32;;;;;;;1.98;1.77;;;;;;;;;;5023475;28;20036;-84
2023/08/10 14:21:57;;;;;;;2.17;1.67;;;;;;;;;;5038800;28;20029;-83
2023/08/10 14:24:22;;;;;;;3.97;1.85;;;;;;;;;;5027886;28;20026;-84
2023/08/10 14:26:48;;;;;;;2.50;1.70;;;;;;;;;;5031273;28;20545;-84
2023/08/10 14:29:13;;;;;;;2.63;1.90;;;;;;;;;;5035194;28;20391;-84
2023/08/10 14:31:39;;;;;;;3.47;1.70;;;;;;;;;;5041888;28;20030;-84
2023/08/10 14:34:05;;;;;;;3.33;1.65;;;;;;;;;;5037194;28;20041;-84
2023/08/10 14:36:30;;;;;;;6.72;1.92;;;;;;;;;;5034723;28;20081;-83
2023/08/10 14:38:55;;;;;;;2.88;1.85;;;;;;;;;;5039514;28;20052;-83
2023/08/10 14:41:21;;;;;;;6.97;1.67;;;;;;;;;;5035901;28;20026;-84